Huvudsida
METAR-TAF:

METAR-TAF

Flygplatser :

Kärrdal, Estland

Kärrdals flygplats

latitud: 58-59N, longitud: 022-49E, höjd: 5 m

Aktuellt väderrapport

Denna rapport gjordes för 3 timmar och 36 minuter sedan, klockan 14:50 UTC
Vind 11 kt från nordväst
Temperatur 6°C
Fuktighet 81%
Tryck 1014 hPa
Sikt 10 km eller mer
Spridda moln på en höjd av 3700 ft

METAR: EEKA 221450Z 32011KT 9999 SCT037 06/03 Q1014

Tid: 21:26 (18:26 UTC)

Väderprognos

Denna rapport gjordes för 6 timmar och 26 minuter sedan, klockan 12:00 UTC
Prognos gäller från 22 kl. 13 UTC till 22 kl. 19 UTC
Vind 10 kt från nord/nordväst
Sikt 10 km eller mer
Brutna moln på en höjd av 2500 ft
Sannolikhet 30% :
Temporärt
från 22 kl. 13 UTC till 22 kl. 19 UTC
Spridda moln på en höjd av 1000 ft
Få moln på en höjd av 2000 ft, Cumulonimbus.
Blir
från 22 kl. 17 UTC till 22 kl. 19 UTC
Vind 10 kt från nord/nordost

TAF: EEKA 221200Z 2213/2219 33010KT 9999 BKN025 PROB30 TEMPO 2213/2219 SCT010 FEW020CB BECMG 2217/2219 03010KT

Aktuella väderrapporter och prognoser från 4000 flygplatser (METAR- och TAF-rapporter).

De tillgängliga stationerna syns som gula och röda prickar på kartan.

För musen över prickarna för att se namnen på stationerna.

Klicka sedan för att få väderrapporter och prognoser.

För att ändra kartan: Klicka på de gröna knapparna med ett svart kors på för att zooma in; den gröna knappen med ett streck på för att zooma ut; eller på de gröna pilarna för angränsande kartor.


METAR-TAF: